createdAt,value
2023-03-30T00:01:21.023Z,56.36
2023-03-30T00:03:50.288Z,56.54
2023-03-30T00:06:22.691Z,56.55
2023-03-30T00:08:57.311Z,56.61
2023-03-30T00:11:26.808Z,56.49
2023-03-30T00:13:55.673Z,56.81
2023-03-30T00:16:24.420Z,56.44
2023-03-30T00:18:53.188Z,56.31
2023-03-30T00:21:21.639Z,55.74
2023-03-30T00:23:52.462Z,55.93
2023-03-30T00:26:21.344Z,55.90
2023-03-30T00:28:49.827Z,56.85
2023-03-30T00:31:18.267Z,56.37
2023-03-30T00:33:47.780Z,56.49
2023-03-30T00:36:17.058Z,56.05
2023-03-30T00:38:48.432Z,56.70
2023-03-30T00:41:18.788Z,56.66
2023-03-30T00:43:58.592Z,56.69
2023-03-30T00:46:27.090Z,56.98
2023-03-30T00:48:58.832Z,56.79
2023-03-30T00:51:28.792Z,56.57
2023-03-30T00:54:02.586Z,56.70
2023-03-30T00:56:32.813Z,56.94
2023-03-30T00:59:02.586Z,57.54
2023-03-30T01:01:38.846Z,57.57
2023-03-30T01:04:10.018Z,57.36
2023-03-30T01:06:40.806Z,57.60
2023-03-30T01:09:09.559Z,57.75
2023-03-30T01:11:39.580Z,57.59
2023-03-30T01:14:11.666Z,57.62
2023-03-30T01:16:50.400Z,57.32
2023-03-30T01:20:12.911Z,57.87
2023-03-30T01:23:37.632Z,59.14
2023-03-30T01:26:49.645Z,58.06
2023-03-30T01:29:45.678Z,57.57
2023-03-30T01:33:15.757Z,57.88
2023-03-30T01:36:24.753Z,57.35
2023-03-30T01:39:30.680Z,58.31
2023-03-30T01:42:04.714Z,57.87
2023-03-30T01:44:42.829Z,57.47
2023-03-30T01:47:19.304Z,57.95
2023-03-30T01:49:57.325Z,58.23
2023-03-30T01:52:31.781Z,57.85
2023-03-30T01:55:05.888Z,57.22
2023-03-30T01:57:40.913Z,57.68
2023-03-30T02:00:15.104Z,57.51
2023-03-30T02:02:49.914Z,57.32
2023-03-30T02:05:20.944Z,57.74
2023-03-30T02:07:54.727Z,57.14
2023-03-30T02:10:29.800Z,57.24
2023-03-30T02:13:00.470Z,57.08
2023-03-30T02:15:36.377Z,57.61
2023-03-30T02:18:05.444Z,57.71
2023-03-30T02:20:35.032Z,57.38
2023-03-30T02:23:06.161Z,57.23
2023-03-30T02:25:38.491Z,57.47
2023-03-30T02:28:08.405Z,57.22
2023-03-30T02:30:41.165Z,57.53
2023-03-30T02:33:14.788Z,57.57
2023-03-30T02:36:23.770Z,57.57
2023-03-30T02:39:22.370Z,57.41
2023-03-30T02:42:31.351Z,57.03
2023-03-30T02:45:15.849Z,57.57
2023-03-30T02:47:58.704Z,57.84
2023-03-30T02:50:36.113Z,57.78
2023-03-30T02:53:23.372Z,57.57
2023-03-30T02:56:03.957Z,57.79
2023-03-30T02:58:57.642Z,58.01
2023-03-30T03:01:33.951Z,57.84
2023-03-30T03:04:11.200Z,57.65
2023-03-30T03:06:52.846Z,58.13
2023-03-30T03:09:21.724Z,57.96
2023-03-30T03:11:50.144Z,58.49
2023-03-30T03:14:20.836Z,58.38
2023-03-30T03:16:49.517Z,57.97
2023-03-30T03:19:19.591Z,58.05
2023-03-30T03:21:51.739Z,57.65
2023-03-30T03:24:20.366Z,58.14
2023-03-30T03:27:08.607Z,58.28
2023-03-30T03:29:56.298Z,58.31
2023-03-30T03:32:24.623Z,58.32
2023-03-30T03:34:53.753Z,58.63
2023-03-30T03:37:22.436Z,58.56
2023-03-30T03:39:50.830Z,58.05
2023-03-30T03:42:19.437Z,58.21
2023-03-30T03:45:01.060Z,58.16
2023-03-30T03:47:29.739Z,58.51
2023-03-30T03:49:58.116Z,58.35
2023-03-30T03:52:26.606Z,58.57
2023-03-30T03:54:55.086Z,59.40
2023-03-30T03:57:24.001Z,59.97
2023-03-30T03:59:53.111Z,59.29
2023-03-30T04:02:24.048Z,59.68
2023-03-30T04:04:54.575Z,59.93
2023-03-30T04:07:25.532Z,59.08
2023-03-30T04:09:54.019Z,59.10
2023-03-30T04:12:46.058Z,60.06
2023-03-30T04:15:32.694Z,60.33
2023-03-30T04:18:33.502Z,60.43
2023-03-30T04:21:21.807Z,60.29
2023-03-30T04:24:03.416Z,61.42
2023-03-30T04:26:50.652Z,61.96
2023-03-30T04:29:34.549Z,62.25
2023-03-30T04:32:20.720Z,62.04
2023-03-30T04:34:55.900Z,61.89
2023-03-30T04:37:42.245Z,62.97
2023-03-30T04:40:35.392Z,64.62
2023-03-30T04:43:14.202Z,64.22
2023-03-30T04:46:03.165Z,64.67
2023-03-30T04:48:51.628Z,64.68
2023-03-30T04:51:21.662Z,62.99
2023-03-30T04:54:11.234Z,62.46
2023-03-30T04:57:16.251Z,63.45
2023-03-30T05:00:07.083Z,62.89
2023-03-30T05:02:55.286Z,61.78
2023-03-30T05:05:46.655Z,62.24
2023-03-30T05:08:44.449Z,62.27
2023-03-30T05:11:37.752Z,62.53
2023-03-30T05:14:38.390Z,62.44
2023-03-30T05:17:25.812Z,62.42
2023-03-30T05:20:15.150Z,62.74
2023-03-30T05:22:53.971Z,62.92
2023-03-30T05:25:56.205Z,64.33
2023-03-30T05:28:33.345Z,64.35
2023-03-30T05:31:29.896Z,65.81
2023-03-30T05:34:16.793Z,66.44
2023-03-30T05:37:11.401Z,65.85
2023-03-30T05:39:48.189Z,66.14
2023-03-30T05:42:38.182Z,66.94
2023-03-30T05:45:26.757Z,67.56
2023-03-30T05:48:01.201Z,67.87
2023-03-30T05:51:05.787Z,67.83
2023-03-30T05:53:45.222Z,68.64
2023-03-30T05:56:27.354Z,70.04
2023-03-30T05:59:16.268Z,70.21
2023-03-30T06:02:10.823Z,70.87
2023-03-30T06:04:40.134Z,71.25
2023-03-30T06:07:08.932Z,72.11
2023-03-30T06:09:37.544Z,72.61
2023-03-30T06:12:14.631Z,73.86
2023-03-30T06:14:44.344Z,73.76
2023-03-30T06:17:24.564Z,74.06
2023-03-30T06:19:52.909Z,74.43
2023-03-30T06:22:21.955Z,74.55
2023-03-30T06:25:01.880Z,74.07
2023-03-30T06:27:31.715Z,75.51
2023-03-30T06:30:01.866Z,75.52
2023-03-30T06:32:30.887Z,75.97
2023-03-30T06:35:03.785Z,76.13
2023-03-30T06:37:32.794Z,76.74
2023-03-30T06:40:01.237Z,77.01
2023-03-30T06:42:29.999Z,77.58
2023-03-30T06:45:17.486Z,77.81
2023-03-30T06:47:46.219Z,78.05
2023-03-30T06:50:14.707Z,78.02
2023-03-30T06:52:45.985Z,77.71
2023-03-30T06:55:15.418Z,78.04
2023-03-30T06:57:43.877Z,78.13
2023-03-30T07:00:14.310Z,77.84
2023-03-30T07:03:10.301Z,77.61
2023-03-30T07:05:45.922Z,77.70
2023-03-30T07:08:32.121Z,77.43
2023-03-30T07:11:00.591Z,77.61
2023-03-30T07:13:32.347Z,77.45
2023-03-30T07:16:00.692Z,76.78
2023-03-30T07:18:31.433Z,77.66
2023-03-30T07:21:00.621Z,76.35
2023-03-30T07:23:41.686Z,76.62
2023-03-30T07:26:12.619Z,76.22
2023-03-30T07:28:52.115Z,77.06
2023-03-30T07:31:22.123Z,76.76
2023-03-30T07:33:53.007Z,77.01
2023-03-30T07:36:25.718Z,77.07
2023-03-30T07:38:54.755Z,76.48
2023-03-30T07:41:23.946Z,77.70
2023-03-30T07:43:57.204Z,76.75
2023-03-30T07:46:26.038Z,76.40
2023-03-30T07:48:58.102Z,76.45
2023-03-30T07:51:28.453Z,76.44
2023-03-30T07:54:10.499Z,75.85
2023-03-30T07:56:54.474Z,75.33
2023-03-30T07:59:24.957Z,76.38
2023-03-30T08:01:56.187Z,75.16
2023-03-30T08:04:53.017Z,75.60
2023-03-30T08:07:35.504Z,76.08
2023-03-30T08:10:13.152Z,76.12
2023-03-30T08:12:42.196Z,76.22
2023-03-30T08:15:12.113Z,75.60
2023-03-30T08:17:41.306Z,75.79
2023-03-30T08:20:12.169Z,76.21
2023-03-30T08:22:40.765Z,75.52
2023-03-30T08:25:09.952Z,75.33
2023-03-30T08:27:38.445Z,75.61
2023-03-30T08:30:08.523Z,75.31
2023-03-30T08:32:36.916Z,74.90
2023-03-30T08:35:06.302Z,75.02
2023-03-30T08:37:36.390Z,74.23
2023-03-30T08:40:08.390Z,74.33
2023-03-30T08:43:23.634Z,73.11
2023-03-30T08:45:53.720Z,71.00
2023-03-30T08:48:26.002Z,70.90
2023-03-30T08:50:59.429Z,69.77
2023-03-30T08:53:31.847Z,69.45
2023-03-30T08:56:07.783Z,68.40
2023-03-30T08:58:44.850Z,68.86
2023-03-30T09:01:20.300Z,68.40
2023-03-30T09:04:03.765Z,68.81
2023-03-30T09:06:45.798Z,69.78
2023-03-30T09:09:19.320Z,69.46
2023-03-30T09:11:53.709Z,69.19
2023-03-30T09:14:33.256Z,68.41
2023-03-30T09:17:08.689Z,68.14
2023-03-30T09:19:47.475Z,67.74
2023-03-30T09:22:16.794Z,67.53
2023-03-30T09:24:46.743Z,67.70
2023-03-30T09:27:22.118Z,68.52
2023-03-30T09:29:52.048Z,68.27
2023-03-30T09:32:31.196Z,68.59
2023-03-30T09:35:07.789Z,68.17
2023-03-30T09:37:37.230Z,68.01
2023-03-30T09:40:28.167Z,68.36
2023-03-30T09:43:09.781Z,68.29
2023-03-30T09:45:38.889Z,68.36
2023-03-30T09:48:09.029Z,68.60
2023-03-30T09:50:42.308Z,68.16
2023-03-30T09:53:25.978Z,68.12
2023-03-30T09:56:02.850Z,68.37
2023-03-30T09:58:33.176Z,68.32
2023-03-30T10:01:12.499Z,68.80
2023-03-30T10:03:42.614Z,68.39
2023-03-30T10:06:13.930Z,68.63
2023-03-30T10:08:51.221Z,68.36
2023-03-30T10:11:33.198Z,68.50
2023-03-30T10:14:01.558Z,67.92
2023-03-30T10:16:33.280Z,68.51
2023-03-30T10:19:03.997Z,67.96
2023-03-30T10:21:38.538Z,67.53
2023-03-30T10:24:22.203Z,67.25
2023-03-30T10:26:56.749Z,66.98
2023-03-30T10:29:28.032Z,65.96
2023-03-30T10:32:02.149Z,65.07
2023-03-30T10:34:38.256Z,63.98
2023-03-30T10:37:11.641Z,63.69
2023-03-30T10:39:42.438Z,64.44
2023-03-30T10:42:18.435Z,65.02
2023-03-30T10:44:50.599Z,64.64
2023-03-30T10:47:45.664Z,64.17
2023-03-30T10:50:27.006Z,63.81
2023-03-30T10:53:10.511Z,63.36
2023-03-30T10:55:45.328Z,62.70
2023-03-30T10:58:31.159Z,61.30
2023-03-30T11:01:10.257Z,58.95
2023-03-30T11:03:41.507Z,57.35
2023-03-30T11:06:18.420Z,57.07
2023-03-30T11:08:50.752Z,55.75
2023-03-30T11:11:23.240Z,54.35
2023-03-30T11:14:01.813Z,55.09
2023-03-30T11:16:41.879Z,56.34
2023-03-30T11:19:16.125Z,57.09
2023-03-30T11:21:53.750Z,55.25
2023-03-30T11:24:24.775Z,54.38
2023-03-30T11:27:00.952Z,52.86
2023-03-30T11:29:43.720Z,53.13
2023-03-30T11:32:31.120Z,52.60
2023-03-30T11:35:08.112Z,51.92
2023-03-30T11:37:43.594Z,51.72
2023-03-30T11:40:19.969Z,52.48
2023-03-30T11:42:48.934Z,53.07
2023-03-30T11:45:41.290Z,53.93
2023-03-30T11:48:32.131Z,54.78
2023-03-30T11:51:17.169Z,56.11
2023-03-30T11:53:55.804Z,58.22
2023-03-30T11:56:35.693Z,57.36
2023-03-30T11:59:07.292Z,56.33
2023-03-30T12:02:01.130Z,55.63
2023-03-30T12:04:33.562Z,54.83
2023-03-30T12:07:03.690Z,53.92
2023-03-30T12:09:36.829Z,53.51
2023-03-30T12:12:17.674Z,53.45
2023-03-30T12:14:56.949Z,53.49
2023-03-30T12:17:42.304Z,52.93
2023-03-30T12:20:26.681Z,54.24
2023-03-30T12:23:00.136Z,55.52
2023-03-30T12:25:36.458Z,55.41
2023-03-30T12:28:12.776Z,57.11
2023-03-30T12:30:50.109Z,57.13
2023-03-30T12:33:29.377Z,57.46
2023-03-30T12:36:03.313Z,57.25
2023-03-30T12:38:43.579Z,56.88
2023-03-30T12:41:15.807Z,52.67
2023-03-30T12:44:06.557Z,48.03
2023-03-30T12:46:41.931Z,47.36
2023-03-30T12:49:24.267Z,47.39
2023-03-30T12:52:09.762Z,46.68
2023-03-30T12:55:03.002Z,46.78
2023-03-30T12:57:46.866Z,46.26
2023-03-30T13:00:51.931Z,46.71
2023-03-30T13:03:45.811Z,47.61
2023-03-30T13:06:27.066Z,55.92
2023-03-30T13:08:57.766Z,60.55
2023-03-30T13:11:26.613Z,65.58
2023-03-30T13:13:58.602Z,65.80
2023-03-30T13:16:49.933Z,64.58
2023-03-30T13:19:28.145Z,62.51
2023-03-30T13:22:19.973Z,61.46
2023-03-30T13:24:57.886Z,61.65
2023-03-30T13:27:31.062Z,60.31
2023-03-30T13:30:02.516Z,60.05
2023-03-30T13:33:04.734Z,60.46
2023-03-30T13:35:43.208Z,61.58
2023-03-30T13:38:37.782Z,60.36
2023-03-30T13:41:22.722Z,61.46
2023-03-30T13:44:05.831Z,61.61
2023-03-30T13:46:41.714Z,62.42
2023-03-30T13:49:35.074Z,62.09
2023-03-30T13:52:07.206Z,62.01
2023-03-30T13:54:39.914Z,61.91
2023-03-30T13:57:13.926Z,63.00
2023-03-30T13:59:47.378Z,63.68
2023-03-30T14:02:18.097Z,63.25
2023-03-30T14:04:49.127Z,63.24
2023-03-30T14:07:20.001Z,61.67
2023-03-30T14:10:06.346Z,58.96
2023-03-30T14:12:39.445Z,60.68
2023-03-30T14:15:19.314Z,59.26
2023-03-30T14:17:51.476Z,58.83
2023-03-30T14:20:40.861Z,59.74
2023-03-30T14:23:17.546Z,60.49
2023-03-30T14:25:47.324Z,61.88
2023-03-30T14:28:19.787Z,61.62
2023-03-30T14:30:53.296Z,62.46
2023-03-30T14:33:22.264Z,63.16
2023-03-30T14:35:53.597Z,62.08
2023-03-30T14:38:26.241Z,63.75
2023-03-30T14:40:56.321Z,64.60
2023-03-30T14:43:31.409Z,65.18
2023-03-30T14:46:06.189Z,64.80
2023-03-30T14:48:37.632Z,65.73
2023-03-30T14:51:24.601Z,65.95
2023-03-30T14:53:53.981Z,67.10
2023-03-30T14:56:24.544Z,66.05
2023-03-30T14:58:56.587Z,65.61
2023-03-30T15:01:31.412Z,66.60
2023-03-30T15:04:03.356Z,67.34
2023-03-30T15:06:33.341Z,66.65
2023-03-30T15:09:04.229Z,66.12
2023-03-30T15:11:34.992Z,67.16
2023-03-30T15:14:09.863Z,67.33
2023-03-30T15:16:39.277Z,69.50
2023-03-30T15:19:14.379Z,68.45
2023-03-30T15:21:43.313Z,67.01
2023-03-30T15:24:26.792Z,67.70
2023-03-30T15:26:58.309Z,66.26
2023-03-30T15:29:28.391Z,64.59
2023-03-30T15:32:09.359Z,64.63
2023-03-30T15:34:38.554Z,65.23
2023-03-30T15:37:23.394Z,63.96
2023-03-30T15:39:51.727Z,64.00
2023-03-30T15:42:27.050Z,65.22
2023-03-30T15:45:06.218Z,62.64
2023-03-30T15:47:35.528Z,62.12
2023-03-30T15:50:04.777Z,62.78
2023-03-30T15:52:36.501Z,62.52
2023-03-30T15:55:10.818Z,61.94
2023-03-30T15:57:47.290Z,62.29
2023-03-30T16:00:22.421Z,61.91
2023-03-30T16:02:57.656Z,61.34
2023-03-30T16:05:28.598Z,62.49
2023-03-30T16:07:57.616Z,61.85
2023-03-30T16:10:28.861Z,63.18
2023-03-30T16:12:58.959Z,62.33
2023-03-30T16:15:32.633Z,62.21
2023-03-30T16:18:01.155Z,61.57
2023-03-30T16:20:32.815Z,61.77
2023-03-30T16:23:01.420Z,59.17
2023-03-30T16:28:01.236Z,58.81
2023-03-30T16:30:35.139Z,58.01
2023-03-30T16:33:03.990Z,58.54
2023-03-30T16:35:32.989Z,57.75
2023-03-30T16:38:01.481Z,58.88
2023-03-30T16:40:34.856Z,57.34
2023-03-30T16:43:03.847Z,58.09
2023-03-30T16:45:34.251Z,58.32
2023-03-30T16:48:02.966Z,58.72
2023-03-30T16:50:38.809Z,58.81
2023-03-30T16:53:08.829Z,58.43
2023-03-30T16:55:38.863Z,57.18
2023-03-30T16:58:09.665Z,58.64
2023-03-30T17:00:43.169Z,57.73
2023-03-30T17:03:11.625Z,57.71
2023-03-30T17:05:40.969Z,57.71
2023-03-30T17:08:19.451Z,57.71
2023-03-30T17:10:48.402Z,57.54
2023-03-30T17:13:16.764Z,58.36
2023-03-30T17:15:46.676Z,57.71
2023-03-30T17:18:18.000Z,58.57
2023-03-30T17:20:49.233Z,57.27
2023-03-30T17:23:17.931Z,57.90
2023-03-30T17:25:49.265Z,57.87
2023-03-30T17:28:22.994Z,58.61
2023-03-30T17:30:55.752Z,57.98
2023-03-30T17:33:24.785Z,59.34
2023-03-30T17:35:57.088Z,58.99
2023-03-30T17:38:26.148Z,58.82
2023-03-30T17:40:54.494Z,59.32
2023-03-30T17:43:23.189Z,59.92
2023-03-30T17:45:53.033Z,59.69
2023-03-30T17:48:23.099Z,59.37
2023-03-30T17:50:52.385Z,59.36
2023-03-30T17:53:23.401Z,59.96
2023-03-30T17:55:53.553Z,60.27
2023-03-30T17:58:25.140Z,60.72
2023-03-30T18:00:55.301Z,60.69
2023-03-30T18:03:25.807Z,60.30
2023-03-30T18:05:54.878Z,61.21
2023-03-30T18:08:24.703Z,60.79
2023-03-30T18:10:54.296Z,60.67
2023-03-30T18:13:24.568Z,60.74
2023-03-30T18:15:56.809Z,60.30
2023-03-30T18:18:29.436Z,61.44
2023-03-30T18:21:02.482Z,60.90
2023-03-30T18:23:33.257Z,60.89
2023-03-30T18:26:03.806Z,61.80
2023-03-30T18:28:32.622Z,61.75
2023-03-30T18:31:02.958Z,62.29
2023-03-30T18:33:31.647Z,61.85
2023-03-30T18:36:05.135Z,61.33
2023-03-30T18:38:33.928Z,61.69
2023-03-30T18:41:02.275Z,62.33
2023-03-30T18:43:30.801Z,62.07
2023-03-30T18:46:02.230Z,63.25
2023-03-30T18:48:31.561Z,62.78
2023-03-30T18:50:59.985Z,63.36
2023-03-30T18:53:29.913Z,63.71
2023-03-30T18:56:00.878Z,63.40
2023-03-30T18:58:41.406Z,63.69
2023-03-30T19:01:12.918Z,63.91
2023-03-30T19:03:41.759Z,61.47
2023-03-30T19:06:14.084Z,61.31
2023-03-30T19:08:43.671Z,61.66
2023-03-30T19:11:16.783Z,61.77
2023-03-30T19:13:47.116Z,61.49
2023-03-30T19:16:18.781Z,60.59
2023-03-30T19:18:49.374Z,61.00
2023-03-30T19:21:18.998Z,61.25
2023-03-30T19:23:47.794Z,61.08
2023-03-30T19:26:16.336Z,60.44
2023-03-30T19:28:44.760Z,60.80
2023-03-30T19:31:16.306Z,60.51
2023-03-30T19:33:46.145Z,60.14
2023-03-30T19:36:14.654Z,59.87
2023-03-30T19:38:44.103Z,60.09
2023-03-30T19:41:12.807Z,60.97
2023-03-30T19:43:41.361Z,60.46
2023-03-30T19:46:09.821Z,60.90
2023-03-30T19:48:38.221Z,60.17
2023-03-30T19:51:08.158Z,60.21
2023-03-30T19:53:37.236Z,60.84
2023-03-30T19:56:11.562Z,60.52
2023-03-30T19:58:40.365Z,61.59
2023-03-30T20:01:10.414Z,61.33
2023-03-30T20:03:39.050Z,61.49
2023-03-30T20:06:11.643Z,61.33
2023-03-30T20:08:40.211Z,61.62
2023-03-30T20:11:09.640Z,61.39
2023-03-30T20:13:38.506Z,62.16
2023-03-30T20:16:07.237Z,61.68
2023-03-30T20:18:35.814Z,62.54
2023-03-30T20:21:05.018Z,62.44
2023-03-30T20:23:34.920Z,62.38
2023-03-30T20:26:04.491Z,62.64
2023-03-30T20:28:33.317Z,63.16
2023-03-30T20:31:02.298Z,63.08
2023-03-30T20:33:33.566Z,63.17
2023-03-30T20:36:02.214Z,62.99
2023-03-30T20:38:30.701Z,63.52
2023-03-30T20:41:04.138Z,63.20
2023-03-30T20:43:36.567Z,62.81
2023-03-30T20:46:14.039Z,63.25
2023-03-30T20:48:45.097Z,62.79
2023-03-30T20:51:15.837Z,62.73
2023-03-30T20:53:44.230Z,63.05
2023-03-30T20:56:13.914Z,63.49
2023-03-30T20:58:42.697Z,63.29
2023-03-30T21:01:18.001Z,63.14
2023-03-30T21:03:50.090Z,62.72
2023-03-30T21:06:23.636Z,62.88
2023-03-30T21:08:52.423Z,62.86
2023-03-30T21:11:23.003Z,63.30
2023-03-30T21:13:51.668Z,63.21
2023-03-30T21:16:20.132Z,63.28
2023-03-30T21:18:48.661Z,64.08
2023-03-30T21:21:17.394Z,63.80
2023-03-30T21:23:45.973Z,63.79
2023-03-30T21:26:15.023Z,64.05
2023-03-30T21:28:44.752Z,64.08
2023-03-30T21:31:16.462Z,63.79
2023-03-30T21:33:45.689Z,63.86
2023-03-30T21:36:14.519Z,64.07
2023-03-30T21:38:42.979Z,64.21
2023-03-30T21:41:14.120Z,64.60
2023-03-30T21:43:47.333Z,64.74
2023-03-30T21:46:18.682Z,64.73
2023-03-30T21:48:49.399Z,65.32
2023-03-30T21:51:21.705Z,65.49
2023-03-30T21:53:52.694Z,65.27
2023-03-30T21:56:23.636Z,65.21
2023-03-30T21:58:53.907Z,65.20
2023-03-30T22:01:24.456Z,65.11
2023-03-30T22:03:53.467Z,65.74
2023-03-30T22:06:23.409Z,65.52
2023-03-30T22:08:52.355Z,65.16
2023-03-30T22:11:23.881Z,65.29
2023-03-30T22:13:55.401Z,65.67
2023-03-30T22:16:28.270Z,65.47
2023-03-30T22:18:57.087Z,65.81
2023-03-30T22:21:29.232Z,65.70
2023-03-30T22:23:57.642Z,65.45
2023-03-30T22:26:27.294Z,65.42
2023-03-30T22:28:57.541Z,65.83
2023-03-30T22:31:26.685Z,66.39
2023-03-30T22:33:56.390Z,66.08
2023-03-30T22:36:29.932Z,66.24
2023-03-30T22:39:00.533Z,66.60
2023-03-30T22:41:30.042Z,66.15
2023-03-30T22:44:00.047Z,66.47
2023-03-30T22:46:29.344Z,66.50
2023-03-30T22:48:57.743Z,66.26
2023-03-30T22:51:27.175Z,67.17
2023-03-30T22:53:57.950Z,67.40
2023-03-30T22:56:27.414Z,66.76
2023-03-30T22:58:56.142Z,66.40
2023-03-30T23:01:25.881Z,66.51
2023-03-30T23:03:54.532Z,66.59
2023-03-30T23:06:22.915Z,67.51
2023-03-30T23:08:52.599Z,67.16
2023-03-30T23:11:21.874Z,66.63
2023-03-30T23:13:52.524Z,67.15
2023-03-30T23:16:20.860Z,66.90
2023-03-30T23:18:51.569Z,66.37
2023-03-30T23:21:22.219Z,67.03
2023-03-30T23:23:50.878Z,67.66
2023-03-30T23:26:19.523Z,67.65
2023-03-30T23:28:47.955Z,67.52
2023-03-30T23:31:18.909Z,68.66
2023-03-30T23:33:47.554Z,68.38
2023-03-30T23:36:19.210Z,67.51
2023-03-30T23:38:48.753Z,68.00
2023-03-30T23:41:19.946Z,67.25
2023-03-30T23:43:48.601Z,67.65
2023-03-30T23:46:17.233Z,67.94
2023-03-30T23:48:45.738Z,67.96
2023-03-30T23:51:14.038Z,68.35
2023-03-30T23:53:43.843Z,68.59
2023-03-30T23:56:13.919Z,69.35
2023-03-30T23:58:42.343Z,68.82
